Time;durP1;ratioP1;P1;durP2;ratioP2;P2;SDS_P1;SDS_P2;PMS_P1;PMS_P2;Temp;Humidity;BMP_temperature;BMP_pressure;BME280_temperature;BME280_humidity;BME280_pressure;Samples;Min_cycle;Max_cycle;Signal;HPM_P1;HPM_P2
2022/07/24 00:00:32;;;;;;;5.25;4.38;;;16.70;99.90;;;;;;5071982;28;20406;-63
2022/07/24 00:02:58;;;;;;;4.45;4.05;;;16.70;99.90;;;;;;5092666;28;20057;-63
2022/07/24 00:05:23;;;;;;;5.50;4.43;;;16.70;99.90;;;;;;5093637;28;20115;-63
2022/07/24 00:07:49;;;;;;;4.97;4.47;;;16.60;99.90;;;;;;5093630;28;20482;-63
2022/07/24 00:10:15;;;;;;;5.00;4.50;;;16.60;99.90;;;;;;5092340;28;20461;-63
2022/07/24 00:12:40;;;;;;;5.22;3.97;;;16.60;99.90;;;;;;5093550;28;20032;-63
2022/07/24 00:15:06;;;;;;;4.93;4.43;;;16.60;99.90;;;;;;5092340;28;20039;-62
2022/07/24 00:17:32;;;;;;;4.47;4.07;;;16.60;99.90;;;;;;5092108;28;20036;-63
2022/07/24 00:19:58;;;;;;;5.53;4.22;;;16.60;99.90;;;;;;5093542;28;20414;-64
2022/07/24 00:22:23;;;;;;;4.88;3.97;;;16.60;99.90;;;;;;5091998;28;20498;-63
2022/07/24 00:24:50;;;;;;;5.28;4.28;;;16.60;99.90;;;;;;5093150;28;20036;-63
2022/07/24 00:27:15;;;;;;;4.10;3.72;;;16.60;99.90;;;;;;5093217;28;20040;-63
2022/07/24 00:29:41;;;;;;;5.00;3.97;;;16.60;99.90;;;;;;5092028;28;20036;-63
2022/07/24 00:32:07;;;;;;;4.75;4.20;;;16.60;99.90;;;;;;5092150;28;20043;-63
2022/07/24 00:34:33;;;;;;;4.70;3.80;;;16.60;99.90;;;;;;5092098;28;20046;-64
2022/07/24 00:36:58;;;;;;;4.20;3.58;;;16.60;99.90;;;;;;5091836;28;20123;-63
2022/07/24 00:39:24;;;;;;;4.03;3.63;;;16.60;99.90;;;;;;5091525;28;20052;-63
2022/07/24 00:41:52;;;;;;;4.00;3.60;;;16.60;99.90;;;;;;5092846;28;20051;-63
2022/07/24 00:44:19;;;;;;;4.43;4.00;;;16.60;99.90;;;;;;5093248;28;20036;-63
2022/07/24 00:46:46;;;;;;;4.22;3.75;;;16.60;99.90;;;;;;5092878;28;20043;-63
2022/07/24 00:49:17;;;;;;;4.32;3.65;;;16.60;99.90;;;;;;5087597;28;20076;-63
2022/07/24 00:51:46;;;;;;;3.97;3.60;;;16.60;99.90;;;;;;5091427;28;20035;-63
2022/07/24 00:54:13;;;;;;;4.38;3.67;;;16.60;99.90;;;;;;5092831;28;20427;-63
2022/07/24 00:56:41;;;;;;;5.35;3.85;;;16.60;99.90;;;;;;5092690;28;20097;-64
2022/07/24 00:59:06;;;;;;;4.95;3.55;;;16.60;99.90;;;;;;5092934;28;20040;-63
2022/07/24 01:01:32;;;;;;;5.15;4.05;;;16.60;99.90;;;;;;5074369;28;20138;-63
2022/07/24 01:03:59;;;;;;;4.55;3.75;;;16.50;99.90;;;;;;5091204;28;20427;-64
2022/07/24 01:06:25;;;;;;;5.55;3.50;;;16.50;99.90;;;;;;5092425;28;20368;-63
2022/07/24 01:08:51;;;;;;;9.07;3.80;;;16.50;99.90;;;;;;5092353;28;20043;-63
2022/07/24 01:11:18;;;;;;;5.72;3.83;;;16.50;99.90;;;;;;5091281;28;20081;-63
2022/07/24 01:13:44;;;;;;;4.47;4.07;;;16.50;99.90;;;;;;5091672;28;20032;-63
2022/07/24 01:16:10;;;;;;;3.92;3.42;;;16.50;99.90;;;;;;5092513;28;20040;-64
2022/07/24 01:18:36;;;;;;;3.67;3.38;;;16.50;99.90;;;;;;5091168;28;20059;-64
2022/07/24 01:21:03;;;;;;;4.38;3.97;;;16.40;99.90;;;;;;5090836;28;20039;-62
2022/07/24 01:23:28;;;;;;;4.80;3.75;;;16.40;99.90;;;;;;5091232;28;20083;-64
2022/07/24 01:25:54;;;;;;;4.85;4.00;;;16.40;99.90;;;;;;5091036;28;20087;-64
2022/07/24 01:28:20;;;;;;;5.43;4.13;;;16.40;99.90;;;;;;5090754;28;20036;-63
2022/07/24 01:30:46;;;;;;;4.82;4.22;;;16.40;99.90;;;;;;5090608;28;20032;-64
2022/07/24 01:33:12;;;;;;;6.15;4.18;;;16.40;99.90;;;;;;5090794;28;20035;-63
2022/07/24 01:35:37;;;;;;;6.13;4.30;;;16.40;99.90;;;;;;5091849;28;20169;-64
2022/07/24 01:38:03;;;;;;;4.78;3.92;;;16.40;99.90;;;;;;5091792;28;20123;-63
2022/07/24 01:40:29;;;;;;;5.07;4.55;;;16.40;99.90;;;;;;5090539;28;20059;-64
2022/07/24 01:42:55;;;;;;;5.53;4.00;;;16.40;99.90;;;;;;5091702;28;20047;-63
2022/07/24 01:45:22;;;;;;;4.40;4.00;;;16.40;99.90;;;;;;5091856;28;20036;-64
2022/07/24 01:47:48;;;;;;;4.97;4.22;;;16.40;99.90;;;;;;5091492;28;20036;-62
2022/07/24 01:50:14;;;;;;;6.00;4.72;;;16.30;99.90;;;;;;5091712;28;20058;-64
2022/07/24 01:52:40;;;;;;;7.13;4.30;;;16.30;99.90;;;;;;5092178;28;20441;-63
2022/07/24 01:55:07;;;;;;;5.55;4.40;;;16.30;99.90;;;;;;5090397;28;20424;-63
2022/07/24 01:57:33;;;;;;;4.95;4.25;;;16.30;99.90;;;;;;5090372;28;20510;-63
2022/07/24 01:59:59;;;;;;;6.35;4.72;;;16.40;99.90;;;;;;5090152;28;20054;-63
2022/07/24 02:02:26;;;;;;;6.38;4.80;;;16.30;99.90;;;;;;5090507;28;20398;-63
2022/07/24 02:04:52;;;;;;;7.32;4.50;;;16.40;99.90;;;;;;5091266;28;20050;-63
2022/07/24 02:07:17;;;;;;;5.32;4.82;;;16.40;99.90;;;;;;5091497;28;20119;-64
2022/07/24 02:09:43;;;;;;;5.28;4.63;;;16.40;99.90;;;;;;5091655;28;20044;-63
2022/07/24 02:12:09;;;;;;;6.05;4.40;;;16.40;99.90;;;;;;5091115;28;20058;-64
2022/07/24 02:14:34;;;;;;;5.32;4.43;;;16.40;99.90;;;;;;5090131;28;20067;-63
2022/07/24 02:17:00;;;;;;;7.15;4.78;;;16.30;99.90;;;;;;5091124;28;20042;-63
2022/07/24 02:19:26;;;;;;;4.82;4.32;;;16.40;99.90;;;;;;5091075;28;20044;-63
2022/07/24 02:21:51;;;;;;;6.72;4.82;;;16.40;99.90;;;;;;5089712;28;20487;-63
2022/07/24 02:24:17;;;;;;;5.03;4.53;;;16.30;99.90;;;;;;5091251;28;20032;-63
2022/07/24 02:26:43;;;;;;;5.03;4.53;;;16.30;99.90;;;;;;5089849;28;20093;-63
2022/07/24 02:29:08;;;;;;;6.25;5.22;;;16.30;99.90;;;;;;5089786;28;20452;-64
2022/07/24 02:31:34;;;;;;;5.28;4.65;;;16.30;99.90;;;;;;5089950;28;20028;-63
2022/07/24 02:34:00;;;;;;;5.10;4.60;;;16.30;99.90;;;;;;5089716;28;20048;-64
2022/07/24 02:36:26;;;;;;;5.53;5.03;;;16.30;99.90;;;;;;5089401;28;20036;-63
2022/07/24 02:38:52;;;;;;;6.32;5.30;;;16.30;99.90;;;;;;5090949;28;20503;-63
2022/07/24 02:41:18;;;;;;;6.47;5.03;;;16.30;99.90;;;;;;5090915;28;20036;-62
2022/07/24 02:43:43;;;;;;;5.57;4.50;;;16.20;99.90;;;;;;5091032;28;20024;-63
2022/07/24 02:46:09;;;;;;;5.53;5.03;;;16.20;99.90;;;;;;5089735;28;20428;-63
2022/07/24 02:48:35;;;;;;;6.50;5.10;;;16.20;99.90;;;;;;5089290;28;20076;-63
2022/07/24 02:51:00;;;;;;;5.53;4.68;;;16.20;99.90;;;;;;5091009;28;20139;-63
2022/07/24 02:53:26;;;;;;;6.50;4.75;;;16.20;99.90;;;;;;5090586;28;20109;-63
2022/07/24 02:55:52;;;;;;;6.97;4.93;;;16.20;99.90;;;;;;5089433;28;20082;-63
2022/07/24 02:58:17;;;;;;;5.90;4.95;;;16.20;99.90;;;;;;5090559;28;20131;-63
2022/07/24 03:00:43;;;;;;;6.05;4.50;;;16.20;99.90;;;;;;5090678;28;20063;-63
2022/07/24 03:03:09;;;;;;;6.60;4.85;;;16.10;99.90;;;;;;5090469;28;20044;-63
2022/07/24 03:05:34;;;;;;;6.35;4.82;;;16.20;99.90;;;;;;5072022;28;20121;-63
2022/07/24 03:08:00;;;;;;;7.47;4.88;;;16.10;99.90;;;;;;5090669;28;20091;-63
2022/07/24 03:10:25;;;;;;;5.43;4.85;;;16.10;99.90;;;;;;5090467;28;20040;-63
2022/07/24 03:12:51;;;;;;;6.10;5.35;;;16.10;99.90;;;;;;5090640;28;20635;-64
2022/07/24 03:15:17;;;;;;;6.72;5.13;;;16.10;99.90;;;;;;5090549;28;20074;-63
2022/07/24 03:17:50;;;;;;;5.68;5.13;;;16.10;99.90;;;;;;5090384;28;20040;-63
2022/07/24 03:20:16;;;;;;;6.43;5.18;;;16.10;99.90;;;;;;5090768;28;20040;-63
2022/07/24 03:22:42;;;;;;;6.60;5.93;;;16.10;99.90;;;;;;5089133;28;20436;-63
2022/07/24 03:25:08;;;;;;;5.60;5.10;;;16.00;99.90;;;;;;5089486;28;20517;-64
2022/07/24 03:27:34;;;;;;;5.43;4.93;;;16.10;99.90;;;;;;5090299;28;20089;-64
2022/07/24 03:29:59;;;;;;;6.05;5.53;;;16.00;99.90;;;;;;5090484;28;20040;-63
2022/07/24 03:32:25;;;;;;;6.30;5.70;;;16.00;99.90;;;;;;5088923;28;20032;-64
2022/07/24 03:34:50;;;;;;;7.82;5.38;;;16.00;99.90;;;;;;5090573;28;20463;-63
2022/07/24 03:37:16;;;;;;;6.53;5.90;;;16.00;99.90;;;;;;5092459;28;20569;-63
2022/07/24 03:39:42;;;;;;;6.60;5.43;;;16.00;99.90;;;;;;5092850;28;20097;-63
2022/07/24 03:42:07;;;;;;;6.05;5.38;;;16.10;99.90;;;;;;5092961;28;20056;-64
2022/07/24 03:44:33;;;;;;;6.32;5.57;;;16.10;99.90;;;;;;5092662;28;20479;-63
2022/07/24 03:46:59;;;;;;;7.57;6.32;;;16.10;99.90;;;;;;5092935;28;20044;-64
2022/07/24 03:49:24;;;;;;;8.35;5.65;;;16.10;99.90;;;;;;5094152;28;20039;-63
2022/07/24 03:51:50;;;;;;;8.13;6.00;;;16.10;99.90;;;;;;5092879;28;20077;-62
2022/07/24 03:54:16;;;;;;;6.95;5.85;;;16.10;99.90;;;;;;5094067;28;20387;-64
2022/07/24 03:56:42;;;;;;;8.10;5.43;;;16.10;99.90;;;;;;5093768;28;20043;-64
2022/07/24 03:59:08;;;;;;;6.00;5.50;;;16.00;99.90;;;;;;5092880;28;20038;-63
2022/07/24 04:01:33;;;;;;;9.40;5.35;;;16.10;99.90;;;;;;5092228;28;20405;-64
2022/07/24 04:04:04;;;;;;;6.60;5.60;;;16.10;99.90;;;;;;5092708;28;20048;-63
2022/07/24 04:06:32;;;;;;;7.40;5.55;;;16.10;99.90;;;;;;5093684;28;20036;-64
2022/07/24 04:08:58;;;;;;;7.18;5.53;;;16.10;99.90;;;;;;5092602;28;20055;-64
2022/07/24 04:11:25;;;;;;;8.15;5.65;;;16.20;99.90;;;;;;5092698;28;20043;-63
2022/07/24 04:13:50;;;;;;;7.78;5.93;;;16.20;99.90;;;;;;5093613;28;20028;-64
2022/07/24 04:16:16;;;;;;;7.05;5.55;;;16.20;99.90;;;;;;5093577;28;20066;-62
2022/07/24 04:18:42;;;;;;;7.85;5.47;;;16.20;99.90;;;;;;5092335;28;20055;-63
2022/07/24 04:21:08;;;;;;;6.60;5.63;;;16.20;99.90;;;;;;5093324;28;20119;-63
2022/07/24 04:23:33;;;;;;;6.50;5.50;;;16.20;99.90;;;;;;5092406;28;20123;-63
2022/07/24 04:25:59;;;;;;;6.20;5.60;;;16.20;99.90;;;;;;5093331;28;20040;-64
2022/07/24 04:28:25;;;;;;;6.20;5.50;;;16.20;99.90;;;;;;5092008;28;20503;-63
2022/07/24 04:30:50;;;;;;;6.28;5.40;;;16.20;99.90;;;;;;5091789;28;20111;-63
2022/07/24 04:33:16;;;;;;;6.07;5.47;;;16.20;99.90;;;;;;5091973;28;20169;-64
2022/07/24 04:35:42;;;;;;;7.97;5.47;;;16.20;99.90;;;;;;5093247;28;20039;-62
2022/07/24 04:38:07;;;;;;;7.22;5.95;;;16.30;99.90;;;;;;5093069;28;20043;-64
2022/07/24 04:40:33;;;;;;;7.20;5.32;;;16.30;99.90;;;;;;5092814;28;20063;-63
2022/07/24 04:42:59;;;;;;;7.78;6.45;;;16.30;99.90;;;;;;5093434;28;20121;-64
2022/07/24 04:45:24;;;;;;;7.22;5.65;;;16.30;99.90;;;;;;5092095;28;20052;-63
2022/07/24 04:47:50;;;;;;;6.43;5.82;;;16.40;99.90;;;;;;5090405;28;20051;-61
2022/07/24 04:50:16;;;;;;;8.95;6.75;;;16.40;99.90;;;;;;5091815;28;20067;-63
2022/07/24 04:52:41;;;;;;;7.15;5.75;;;16.40;99.90;;;;;;5092788;28;20387;-64
2022/07/24 04:55:08;;;;;;;6.90;6.22;;;16.40;99.90;;;;;;5092844;28;20024;-63
2022/07/24 04:57:34;;;;;;;6.68;5.97;;;16.50;99.90;;;;;;5093123;28;20036;-64
2022/07/24 04:59:59;;;;;;;7.57;6.63;;;16.50;99.90;;;;;;5092313;28;20040;-64
2022/07/24 05:02:25;;;;;;;7.78;6.40;;;16.60;99.90;;;;;;5091620;28;20032;-63
2022/07/24 05:04:51;;;;;;;6.68;6.07;;;16.50;99.90;;;;;;5092635;28;20036;-63
2022/07/24 05:07:17;;;;;;;8.68;6.53;;;16.60;99.90;;;;;;5092536;28;20040;-62
2022/07/24 05:09:42;;;;;;;8.07;6.25;;;16.60;99.90;;;;;;5091145;28;20036;-63
2022/07/24 05:12:08;;;;;;;7.63;6.82;;;16.60;99.90;;;;;;5092345;28;20074;-62
2022/07/24 05:14:34;;;;;;;7.97;6.53;;;16.60;99.90;;;;;;5092273;28;20036;-63
2022/07/24 05:16:59;;;;;;;9.40;6.85;;;16.70;99.90;;;;;;5092395;28;20051;-64
2022/07/24 05:19:25;;;;;;;8.55;7.10;;;16.80;99.90;;;;;;5092841;28;20028;-63
2022/07/24 05:21:50;;;;;;;9.35;6.10;;;16.80;99.90;;;;;;5090948;28;20072;-63
2022/07/24 05:24:16;;;;;;;7.55;6.50;;;16.80;99.90;;;;;;5091007;28;20119;-63
2022/07/24 05:26:42;;;;;;;9.45;7.22;;;16.90;99.90;;;;;;5092657;28;20118;-64
2022/07/24 05:29:07;;;;;;;8.82;6.50;;;16.90;99.90;;;;;;5090838;28;20040;-63
2022/07/24 05:31:34;;;;;;;8.00;6.70;;;16.90;99.90;;;;;;5092323;28;20028;-62
2022/07/24 05:34:01;;;;;;;7.20;6.50;;;17.00;99.90;;;;;;5091921;28;20391;-63
2022/07/24 05:36:28;;;;;;;8.90;6.90;;;17.10;99.90;;;;;;5092198;28;20032;-64
2022/07/24 05:38:54;;;;;;;7.25;6.55;;;17.20;99.90;;;;;;5090779;28;20059;-64
2022/07/24 05:41:19;;;;;;;8.82;6.57;;;17.40;99.90;;;;;;5091927;28;20043;-64
2022/07/24 05:43:45;;;;;;;8.55;7.10;;;17.60;99.90;;;;;;5091912;28;20058;-64
2022/07/24 05:46:11;;;;;;;7.13;6.32;;;17.70;99.90;;;;;;5091593;28;20085;-63
2022/07/24 05:48:37;;;;;;;8.57;6.63;;;17.90;99.90;;;;;;5091634;28;20126;-63
2022/07/24 05:51:02;;;;;;;8.70;6.95;;;18.00;99.90;;;;;;5090527;28;20046;-63
2022/07/24 05:53:28;;;;;;;9.20;7.20;;;18.20;99.90;;;;;;5090772;28;20036;-64
2022/07/24 05:55:54;;;;;;;8.75;7.55;;;18.30;99.90;;;;;;5091530;28;20467;-64
2022/07/24 05:58:20;;;;;;;9.00;7.55;;;18.50;99.90;;;;;;5091322;28;20050;-63
2022/07/24 06:00:46;;;;;;;9.93;7.78;;;18.50;99.90;;;;;;5091593;28;20534;-64
2022/07/24 06:03:12;;;;;;;9.15;7.43;;;18.70;99.90;;;;;;5073084;28;20087;-63
2022/07/24 06:05:38;;;;;;;8.52;7.70;;;18.80;99.90;;;;;;5090233;28;20506;-64
2022/07/24 06:08:05;;;;;;;11.13;8.30;;;18.80;99.90;;;;;;5089854;28;20415;-63
2022/07/24 06:10:31;;;;;;;12.40;8.18;;;18.80;99.90;;;;;;5090034;28;20123;-63
2022/07/24 06:12:57;;;;;;;10.27;8.60;;;18.80;99.90;;;;;;5090154;28;20043;-63
2022/07/24 06:15:23;;;;;;;11.20;9.05;;;19.00;99.90;;;;;;5089892;28;20036;-63
2022/07/24 06:17:49;;;;;;;11.55;8.45;;;19.10;99.90;;;;;;5090298;28;20471;-64
2022/07/24 06:20:16;;;;;;;11.65;8.02;;;19.30;99.90;;;;;;5091120;28;20054;-63
2022/07/24 06:22:45;;;;;;;11.05;8.27;;;19.30;99.90;;;;;;5085786;28;20038;-63
2022/07/24 06:25:11;;;;;;;13.98;8.20;;;19.50;99.90;;;;;;5090030;28;20055;-63
2022/07/24 06:27:41;;;;;;;10.07;8.82;;;19.60;99.90;;;;;;5090862;28;20101;-63
2022/07/24 06:30:11;;;;;;;10.00;8.75;;;19.70;99.90;;;;;;5089867;28;20166;-63
2022/07/24 06:32:37;;;;;;;11.60;9.15;;;19.80;99.90;;;;;;5091086;28;20028;-63
2022/07/24 06:35:03;;;;;;;10.32;9.23;;;19.90;99.90;;;;;;5090844;28;20035;-63
2022/07/24 06:37:29;;;;;;;11.68;9.68;;;19.90;99.90;;;;;;5091082;28;20036;-63
2022/07/24 06:39:54;;;;;;;14.32;10.05;;;20.00;99.90;;;;;;5089314;28;20071;-64
2022/07/24 06:42:20;;;;;;;11.23;9.50;;;20.10;99.90;;;;;;5123471;27;20060;-63
2022/07/24 06:44:45;;;;;;;11.40;9.70;;;20.20;99.90;;;;;;5091047;28;20568;-63
2022/07/24 06:47:11;;;;;;;13.63;9.68;;;20.20;99.90;;;;;;5089299;28;20074;-64
2022/07/24 06:49:37;;;;;;;12.02;9.45;;;20.30;99.90;;;;;;5090703;28;20107;-64
2022/07/24 06:52:02;;;;;;;13.25;10.23;;;20.40;99.90;;;;;;5089579;28;20078;-63
2022/07/24 06:54:28;;;;;;;13.60;10.52;;;20.50;99.90;;;;;;5089506;28;20032;-63
2022/07/24 06:56:54;;;;;;;13.57;10.27;;;20.60;99.90;;;;;;5090963;28;20047;-62
2022/07/24 06:59:19;;;;;;;10.70;9.63;;;20.70;99.90;;;;;;5090454;28;20078;-63
2022/07/24 07:01:45;;;;;;;13.07;11.18;;;20.80;99.90;;;;;;5090802;28;20098;-63
2022/07/24 07:04:11;;;;;;;14.88;10.88;;;21.00;99.90;;;;;;5123566;28;20044;-63
2022/07/24 07:06:36;;;;;;;14.60;10.63;;;21.00;99.90;;;;;;5090501;28;20032;-62
2022/07/24 07:09:02;;;;;;;14.27;11.55;;;21.10;99.90;;;;;;5123779;28;20051;-63
2022/07/24 07:11:28;;;;;;;14.43;11.00;;;21.10;99.90;;;;;;5091988;28;20039;-63
2022/07/24 07:13:53;;;;;;;12.57;10.48;;;21.30;99.90;;;;;;5094808;28;20036;-63
2022/07/24 07:16:19;;;;;;;13.00;10.80;;;21.50;99.90;;;;;;5127447;27;20411;-64
2022/07/24 07:18:45;;;;;;;11.48;9.70;;;21.50;99.90;;;;;;5094780;28;20427;-63
2022/07/24 07:21:10;;;;;;;12.85;10.43;;;21.70;99.90;;;;;;5094534;28;20032;-63
2022/07/24 07:23:36;;;;;;;11.32;9.32;;;21.90;99.90;;;;;;5094412;28;20066;-62
2022/07/24 07:26:01;;;;;;;11.23;9.07;;;22.00;99.90;;;;;;5094933;28;20093;-64
2022/07/24 07:28:27;;;;;;;14.45;8.82;;;22.10;99.90;;;;;;5093032;28;20040;-63
2022/07/24 07:30:53;;;;;;;9.55;7.70;;;22.20;99.90;;;;;;5094565;28;20416;-63
2022/07/24 07:33:18;;;;;;;9.80;7.32;;;22.30;99.90;;;;;;5094316;28;20051;-63
2022/07/24 07:35:44;;;;;;;11.90;7.93;;;22.30;99.90;;;;;;5094357;28;20032;-63
2022/07/24 07:38:10;;;;;;;10.75;7.82;;;22.30;99.90;;;;;;5092978;28;20036;-63
2022/07/24 07:40:35;;;;;;;10.55;7.95;;;22.30;99.90;;;;;;5093840;28;20135;-63
2022/07/24 07:43:01;;;;;;;9.27;7.60;;;22.30;99.90;;;;;;5094424;28;20153;-63
2022/07/24 07:45:27;;;;;;;8.00;6.80;;;22.30;99.90;;;;;;5094135;28;20508;-64
2022/07/24 07:47:53;;;;;;;9.02;6.60;;;22.40;99.90;;;;;;5092693;28;20044;-63
2022/07/24 07:50:18;;;;;;;11.10;6.97;;;22.40;99.90;;;;;;5093974;28;20047;-63
2022/07/24 07:52:44;;;;;;;9.48;7.03;;;22.50;99.90;;;;;;5092898;28;20071;-63
2022/07/24 07:55:10;;;;;;;6.93;6.18;;;22.60;99.90;;;;;;5093944;28;20089;-64
2022/07/24 07:57:36;;;;;;;6.05;5.00;;;22.70;99.90;;;;;;5094124;28;20067;-63
2022/07/24 08:00:02;;;;;;;5.93;5.28;;;22.80;99.90;;;;;;5094023;28;20047;-63
2022/07/24 08:02:29;;;;;;;5.10;4.47;;;22.90;99.90;;;;;;5093814;28;20043;-63
2022/07/24 08:04:55;;;;;;;6.85;4.82;;;22.90;99.90;;;;;;5093916;28;20052;-63
2022/07/24 08:07:20;;;;;;;4.40;4.00;;;23.00;99.90;;;;;;5093600;28;20439;-63
2022/07/24 08:09:46;;;;;;;5.25;3.50;;;23.10;99.90;;;;;;5093630;28;20038;-64
2022/07/24 08:12:11;;;;;;;4.40;3.38;;;23.10;99.90;;;;;;5093740;28;20036;-64
2022/07/24 08:14:37;;;;;;;3.10;2.80;;;23.30;99.90;;;;;;5093791;28;20394;-63
2022/07/24 08:17:03;;;;;;;3.15;2.83;;;23.50;99.90;;;;;;5093824;28;20451;-64
2022/07/24 08:19:29;;;;;;;4.18;2.95;;;23.80;99.90;;;;;;5092169;28;20036;-62
2022/07/24 08:21:54;;;;;;;3.45;2.58;;;23.80;99.90;;;;;;5093545;28;20521;-63
2022/07/24 08:24:20;;;;;;;4.35;2.90;;;23.70;99.90;;;;;;5093430;28;20044;-62
2022/07/24 08:26:47;;;;;;;3.92;2.47;;;23.60;99.90;;;;;;5089743;28;20039;-63
2022/07/24 08:29:13;;;;;;;2.90;2.60;;;23.60;99.90;;;;;;5092767;28;20031;-63
2022/07/24 08:31:39;;;;;;;3.08;2.45;;;23.60;99.90;;;;;;5094791;28;20036;-63
2022/07/24 08:34:05;;;;;;;3.58;2.67;;;23.60;99.90;;;;;;5093250;28;20028;-63
2022/07/24 08:36:31;;;;;;;4.50;2.80;;;23.70;99.90;;;;;;5093453;28;20387;-63
2022/07/24 08:38:57;;;;;;;5.97;2.92;;;23.80;99.90;;;;;;5091431;28;20055;-64
2022/07/24 08:41:35;;;;;;;3.25;2.85;;;24.10;99.90;;;;;;5083655;28;20075;-63
2022/07/24 08:44:17;;;;;;;3.53;2.42;;;24.30;99.90;;;;;;5092236;28;20525;-62
2022/07/24 08:49:21;;;;;;;4.05;2.92;;;24.00;99.90;;;;;;4754075;23;19961;-65
2022/07/24 08:51:49;;;;;;;4.72;2.88;;;24.00;99.90;;;;;;4993672;28;20124;-63
2022/07/24 08:54:14;;;;;;;4.05;2.70;;;24.00;99.90;;;;;;4993877;28;20042;-64
2022/07/24 08:56:41;;;;;;;3.50;2.60;;;24.00;99.90;;;;;;4993257;28;20162;-63
2022/07/24 08:59:18;;;;;;;4.18;3.10;;;24.10;99.90;;;;;;4993430;28;20053;-64
2022/07/24 09:01:46;;;;;;;3.13;2.60;;;24.20;99.90;;;;;;4986826;28;20046;-63
2022/07/24 09:04:34;;;;;;;3.80;2.70;;;24.40;99.90;;;;;;4981191;28;20035;-63
2022/07/24 09:07:02;;;;;;;4.55;2.67;;;24.70;99.90;;;;;;4972289;28;20074;-63
2022/07/24 09:09:27;;;;;;;3.92;2.65;;;24.80;99.90;;;;;;4981881;28;20150;-63
2022/07/24 09:12:05;;;;;;;3.05;2.38;;;25.10;99.90;;;;;;4984316;28;20440;-65
2022/07/24 09:14:38;;;;;;;5.32;2.80;;;25.40;99.90;;;;;;4975338;28;20046;-64
2022/07/24 09:17:12;;;;;;;4.43;2.13;;;25.30;99.90;;;;;;4993094;28;20035;-64
2022/07/24 09:19:49;;;;;;;2.35;2.15;;;25.30;99.20;;;;;;4992632;28;20034;-63
2022/07/24 09:22:23;;;;;;;2.33;2.10;;;25.30;98.30;;;;;;4982878;28;20113;-64
2022/07/24 09:25:04;;;;;;;3.95;2.15;;;25.20;99.10;;;;;;4979426;28;20046;-63
2022/07/24 09:27:29;;;;;;;2.45;2.08;;;25.30;98.40;;;;;;4979014;28;20118;-64
2022/07/24 09:29:55;;;;;;;3.08;2.25;;;25.40;98.80;;;;;;4973610;28;20179;-65
2022/07/24 09:32:24;;;;;;;3.95;1.92;;;25.70;98.90;;;;;;4978838;28;20085;-64
2022/07/24 09:34:54;;;;;;;4.15;2.13;;;25.80;98.40;;;;;;4974830;28;20033;-64
2022/07/24 09:37:21;;;;;;;3.13;2.00;;;25.60;97.50;;;;;;4985346;28;20480;-63
2022/07/24 09:39:47;;;;;;;3.15;2.38;;;25.30;97.70;;;;;;4992572;28;20038;-65
2022/07/24 09:42:13;;;;;;;2.20;2.00;;;25.30;97.40;;;;;;4991197;28;20045;-65
2022/07/24 09:44:39;;;;;;;3.45;1.98;;;25.40;98.30;;;;;;4977413;28;20042;-65
2022/07/24 09:47:07;;;;;;;2.95;2.13;;;25.60;98.00;;;;;;4989836;28;20144;-64
2022/07/24 09:49:34;;;;;;;3.63;2.33;;;25.70;97.70;;;;;;4987909;28;20386;-64
2022/07/24 09:52:19;;;;;;;3.65;2.20;;;25.70;97.20;;;;;;4984080;28;20038;-64
2022/07/24 09:54:49;;;;;;;3.25;2.15;;;26.10;97.20;;;;;;4972800;28;20041;-65
2022/07/24 09:57:22;;;;;;;3.17;2.20;;;26.10;96.80;;;;;;4976002;28;20038;-63
2022/07/24 09:59:54;;;;;;;4.30;2.20;;;26.20;97.10;;;;;;4977105;28;20385;-64
2022/07/24 10:02:23;;;;;;;2.50;2.30;;;26.20;96.40;;;;;;4974259;28;20042;-65
2022/07/24 10:04:49;;;;;;;3.83;2.10;;;26.10;96.40;;;;;;4986030;28;20037;-65
2022/07/24 10:07:19;;;;;;;2.78;2.00;;;26.20;97.20;;;;;;4974039;28;20046;-64
2022/07/24 10:09:46;;;;;;;3.00;2.20;;;26.40;96.70;;;;;;4971182;28;20046;-63
2022/07/24 10:12:24;;;;;;;3.17;2.00;;;26.40;96.60;;;;;;4986345;28;20120;-63
2022/07/24 10:14:52;;;;;;;2.53;2.08;;;26.60;96.40;;;;;;4983062;28;20362;-65
2022/07/24 10:17:18;;;;;;;4.60;2.10;;;26.60;95.90;;;;;;4987291;28;20046;-66
2022/07/24 10:19:47;;;;;;;3.20;2.35;;;26.80;96.70;;;;;;4983807;28;20464;-65
2022/07/24 10:22:15;;;;;;;5.00;2.10;;;26.80;96.30;;;;;;4974305;28;20049;-64
2022/07/24 10:24:54;;;;;;;2.90;2.10;;;27.10;97.00;;;;;;4977519;28;20046;-63
2022/07/24 10:27:28;;;;;;;2.65;2.40;;;27.10;96.10;;;;;;4977151;28;20053;-64
2022/07/24 10:29:56;;;;;;;2.35;2.05;;;27.40;96.70;;;;;;4983365;28;20049;-65
2022/07/24 10:32:24;;;;;;;2.28;1.85;;;27.30;94.80;;;;;;4978594;28;21298;-65
2022/07/24 10:35:13;;;;;;;3.78;1.88;;;27.00;94.50;;;;;;4984786;28;20042;-65
2022/07/24 10:38:07;;;;;;;2.10;1.90;;;27.00;94.60;;;;;;4985172;28;20055;-66
2022/07/24 10:40:49;;;;;;;4.57;2.22;;;26.90;93.80;;;;;;4985289;28;20545;-63
2022/07/24 10:43:19;;;;;;;3.65;2.10;;;26.80;94.00;;;;;;4983912;28;20057;-64
2022/07/24 10:46:06;;;;;;;3.03;1.95;;;26.90;94.60;;;;;;4983752;28;20064;-65
2022/07/24 10:48:36;;;;;;;3.05;2.10;;;27.10;94.50;;;;;;4979688;28;20054;-65
2022/07/24 10:51:05;;;;;;;2.20;1.90;;;27.00;94.80;;;;;;4984951;28;20461;-65
2022/07/24 10:53:37;;;;;;;1.90;1.70;;;27.10;94.60;;;;;;4985497;28;20043;-63
2022/07/24 10:56:24;;;;;;;;;;;27.20;94.10;;;;;;4981838;28;20125;-63
2022/07/24 10:59:08;;;;;;;3.38;1.80;;;27.30;94.60;;;;;;4981316;28;19918;-64
2022/07/24 11:01:44;;;;;;;2.83;1.98;;;27.60;95.10;;;;;;4986712;28;20049;-64
2022/07/24 11:04:18;;;;;;;3.08;1.73;;;27.60;94.20;;;;;;4979542;28;20054;-64
2022/07/24 11:06:48;;;;;;;3.67;1.90;;;27.60;93.90;;;;;;4981819;28;20062;-66
2022/07/24 11:09:16;;;;;;;2.88;2.00;;;27.60;93.90;;;;;;4979775;28;20034;-63
2022/07/24 11:12:03;;;;;;;2.40;2.10;;;27.50;93.60;;;;;;4979074;28;20047;-64
2022/07/24 11:14:38;;;;;;;3.30;2.20;;;27.30;92.50;;;;;;4978200;28;20035;-65
2022/07/24 11:17:36;;;;;;;2.75;2.00;;;27.30;93.80;;;;;;4985700;28;20038;-65
2022/07/24 11:20:03;;;;;;;2.88;1.80;;;27.50;94.30;;;;;;4978368;28;20066;-65
2022/07/24 11:22:47;;;;;;;2.22;1.80;;;27.50;93.70;;;;;;4979696;28;20043;-64
2022/07/24 11:25:21;;;;;;;4.82;2.00;;;27.70;93.40;;;;;;4989633;28;20129;-65
2022/07/24 11:28:07;;;;;;;4.43;2.00;;;27.60;93.10;;;;;;4983246;28;20550;-64
2022/07/24 11:30:32;;;;;;;3.88;1.80;;;27.40;92.80;;;;;;4967822;28;20080;-64
2022/07/24 11:32:59;;;;;;;2.58;1.90;;;27.50;93.00;;;;;;4968741;28;20171;-65
2022/07/24 11:35:34;;;;;;;2.97;1.80;;;27.30;92.70;;;;;;4952588;28;20058;-64
2022/07/24 11:38:02;;;;;;;2.97;2.25;;;27.10;92.40;;;;;;4952006;28;20425;-65
2022/07/24 11:40:28;;;;;;;2.67;1.77;;;26.90;92.20;;;;;;4968839;28;20038;-65
2022/07/24 11:43:02;;;;;;;2.60;2.10;;;26.90;93.00;;;;;;4968002;28;20050;-64
2022/07/24 11:45:28;;;;;;;3.58;2.00;;;26.90;92.20;;;;;;4968684;28;20085;-65
2022/07/24 11:47:54;;;;;;;3.92;2.00;;;27.00;92.80;;;;;;4966548;28;20544;-65
2022/07/24 11:50:24;;;;;;;2.50;2.28;;;27.00;92.60;;;;;;4968592;28;20042;-64
2022/07/24 11:52:51;;;;;;;1.83;1.67;;;27.10;92.60;;;;;;4950956;28;20757;-65
2022/07/24 11:55:19;;;;;;;2.88;2.03;;;27.10;92.30;;;;;;4966685;28;20604;-64
2022/07/24 11:57:53;;;;;;;2.85;2.20;;;27.30;92.70;;;;;;4968775;28;20105;-64
2022/07/24 12:00:22;;;;;;;2.97;2.03;;;27.50;92.40;;;;;;4969360;28;20059;-64
2022/07/24 12:02:52;;;;;;;4.50;2.38;;;27.40;92.70;;;;;;4954865;28;20583;-65
2022/07/24 12:05:28;;;;;;;4.68;2.30;;;27.30;92.30;;;;;;4971923;28;20097;-64
2022/07/24 12:07:59;;;;;;;3.28;2.45;;;27.20;91.60;;;;;;4982256;28;20082;-66
2022/07/24 12:10:26;;;;;;;3.53;2.10;;;27.10;92.10;;;;;;4967197;28;20055;-64
2022/07/24 12:12:53;;;;;;;2.13;1.85;;;27.20;92.80;;;;;;4985698;28;20045;-63
2022/07/24 12:15:21;;;;;;;2.85;2.15;;;27.20;92.50;;;;;;4982081;28;20046;-63
2022/07/24 12:17:59;;;;;;;3.83;2.10;;;27.20;92.50;;;;;;4980179;28;20066;-63
2022/07/24 12:20:33;;;;;;;2.50;2.00;;;27.20;92.00;;;;;;4981112;28;20405;-65
2022/07/24 12:23:01;;;;;;;2.15;1.95;;;27.30;92.60;;;;;;4981309;28;20042;-63
2022/07/24 12:25:28;;;;;;;3.85;2.00;;;27.40;92.60;;;;;;4989722;28;20041;-63
2022/07/24 12:28:12;;;;;;;2.47;2.17;;;27.30;92.30;;;;;;4990943;28;20557;-64
2022/07/24 12:30:40;;;;;;;3.55;2.42;;;27.40;92.80;;;;;;4978004;28;20062;-64
2022/07/24 12:33:12;;;;;;;2.70;2.40;;;27.30;92.50;;;;;;4980915;28;20085;-64
2022/07/24 12:36:00;;;;;;;3.10;2.10;;;27.30;91.90;;;;;;4981156;28;20074;-66
2022/07/24 12:38:34;;;;;;;2.50;2.15;;;27.20;91.80;;;;;;4978427;28;20545;-62
2022/07/24 12:41:13;;;;;;;4.55;2.20;;;27.20;92.50;;;;;;4982439;28;20039;-63
2022/07/24 12:43:50;;;;;;;5.10;1.98;;;27.10;92.40;;;;;;4986404;28;20038;-64
2022/07/24 12:46:18;;;;;;;2.83;2.08;;;27.20;92.60;;;;;;4989156;28;20131;-64
2022/07/24 12:49:08;;;;;;;2.38;2.00;;;27.10;92.90;;;;;;4976581;28;20065;-65
2022/07/24 12:51:49;;;;;;;2.88;2.40;;;27.20;92.00;;;;;;4982987;28;20118;-66